Time;durP1;ratioP1;P1;durP2;ratioP2;P2;SDS_P1;SDS_P2;PMS_P1;PMS_P2;Temp;Humidity;BMP_temperature;BMP_pressure;BME280_temperature;BME280_humidity;BME280_pressure;Samples;Min_cycle;Max_cycle;Signal;HPM_P1;HPM_P2
2021/03/24 00:00:43;;;;;;;16.92;11.32;;;1.60;99.90;;;;;;5072153;28;20285;-84
2021/03/24 00:03:11;;;;;;;22.90;13.00;;;1.60;99.90;;;;;;5074984;28;20780;-86
2021/03/24 00:05:40;;;;;;;21.75;12.32;;;1.60;99.90;;;;;;5094050;28;20229;-83
2021/03/24 00:08:07;;;;;;;17.30;10.70;;;1.70;99.90;;;;;;5093212;28;20283;-86
2021/03/24 00:10:34;;;;;;;21.10;11.90;;;1.50;99.90;;;;;;5095244;28;20291;-86
2021/03/24 00:13:01;;;;;;;19.88;11.57;;;1.40;99.90;;;;;;5095201;28;20252;-85
2021/03/24 00:15:28;;;;;;;20.85;11.30;;;1.40;99.90;;;;;;5094988;28;20708;-87
2021/03/24 00:17:57;;;;;;;22.23;13.00;;;1.40;99.90;;;;;;5094908;28;20287;-86
2021/03/24 00:20:26;;;;;;;23.27;11.20;;;1.30;99.90;;;;;;5094785;28;20295;-87
2021/03/24 00:22:53;;;;;;;18.45;12.25;;;1.30;99.90;;;;;;5093670;28;20266;-87
2021/03/24 00:25:20;;;;;;;20.48;12.88;;;1.30;99.90;;;;;;5095007;28;20287;-86
2021/03/24 00:27:49;;;;;;;17.38;9.98;;;1.40;99.90;;;;;;5094824;28;20292;-86
2021/03/24 00:30:17;;;;;;;16.52;10.68;;;1.30;99.90;;;;;;5093796;28;20296;-87
2021/03/24 00:32:45;;;;;;;22.02;11.75;;;1.30;99.90;;;;;;5094980;28;20221;-87
2021/03/24 00:35:13;;;;;;;14.90;10.02;;;1.30;99.90;;;;;;5091560;28;20232;-87
2021/03/24 00:37:39;;;;;;;22.08;11.70;;;1.20;99.90;;;;;;5094187;28;20652;-86
2021/03/24 00:40:18;;;;;;;23.48;12.70;;;1.20;99.90;;;;;;5075470;28;20292;-86
2021/03/24 00:42:45;;;;;;;18.15;10.95;;;1.10;99.90;;;;;;5094803;28;20270;-86
2021/03/24 00:45:13;;;;;;;23.38;12.38;;;1.20;99.90;;;;;;5094360;28;20296;-88
2021/03/24 00:47:39;;;;;;;18.95;11.23;;;1.20;99.90;;;;;;5094751;28;20201;-87
2021/03/24 00:50:07;;;;;;;18.30;11.07;;;1.20;99.90;;;;;;5094901;28;20243;-86
2021/03/24 00:52:35;;;;;;;21.60;12.13;;;1.30;99.90;;;;;;5093888;28;20284;-86
2021/03/24 00:55:01;;;;;;;21.70;11.10;;;1.40;99.90;;;;;;5093187;28;20346;-85
2021/03/24 00:57:28;;;;;;;17.98;10.88;;;1.40;99.90;;;;;;5094750;28;20240;-86
2021/03/24 00:59:55;;;;;;;17.88;10.40;;;1.30;99.90;;;;;;5094555;28;20247;-86
2021/03/24 01:02:21;;;;;;;18.00;11.48;;;1.30;99.90;;;;;;5094518;28;20652;-86
2021/03/24 01:04:48;;;;;;;18.85;10.30;;;1.30;99.90;;;;;;5094444;28;20618;-87
2021/03/24 01:07:15;;;;;;;22.98;11.50;;;1.20;99.90;;;;;;5093714;28;20338;-85
2021/03/24 01:09:42;;;;;;;15.98;11.40;;;1.20;99.90;;;;;;5092167;28;20243;-86
2021/03/24 01:12:10;;;;;;;19.27;11.65;;;1.10;99.90;;;;;;5093442;28;20200;-86
2021/03/24 01:14:37;;;;;;;17.67;11.48;;;1.10;99.90;;;;;;5094333;28;20295;-85
2021/03/24 01:17:04;;;;;;;18.33;12.43;;;1.10;99.90;;;;;;5094343;28;20335;-86
2021/03/24 01:19:31;;;;;;;23.35;10.10;;;1.20;99.90;;;;;;5093807;28;20670;-86
2021/03/24 01:21:57;;;;;;;14.93;9.38;;;1.10;99.90;;;;;;5093345;28;20245;-86
2021/03/24 01:24:24;;;;;;;18.10;10.52;;;1.10;99.90;;;;;;5092902;28;20236;-87
2021/03/24 01:26:51;;;;;;;20.70;11.57;;;1.10;99.90;;;;;;5094143;28;20304;-86
2021/03/24 01:29:17;;;;;;;18.20;11.70;;;1.30;99.90;;;;;;5093334;28;20296;-86
2021/03/24 01:31:44;;;;;;;18.35;12.68;;;1.20;99.90;;;;;;5090080;28;20212;-85
2021/03/24 01:34:10;;;;;;;17.95;10.73;;;1.10;99.90;;;;;;5083469;28;20240;-86
2021/03/24 01:36:37;;;;;;;15.27;8.98;;;1.00;99.90;;;;;;5074179;28;20292;-86
2021/03/24 01:39:04;;;;;;;19.23;11.70;;;1.00;99.90;;;;;;5073118;28;20268;-86
2021/03/24 01:41:31;;;;;;;20.90;12.48;;;1.00;99.90;;;;;;5074175;28;20201;-86
2021/03/24 01:43:59;;;;;;;18.58;10.80;;;1.10;99.90;;;;;;5075011;28;20630;-86
2021/03/24 01:46:36;;;;;;;18.02;9.45;;;1.10;99.90;;;;;;5074587;28;20237;-86
2021/03/24 01:49:06;;;;;;;17.73;10.13;;;1.10;99.90;;;;;;5074054;28;20292;-86
2021/03/24 01:51:37;;;;;;;20.27;11.48;;;1.10;99.90;;;;;;5080779;28;20221;-87
2021/03/24 01:54:13;;;;;;;21.35;11.02;;;1.10;99.90;;;;;;5094758;28;20228;-87
2021/03/24 01:56:42;;;;;;;22.23;10.82;;;1.10;99.90;;;;;;5080079;28;20225;-86
2021/03/24 01:59:09;;;;;;;16.45;9.80;;;1.00;99.90;;;;;;5084880;28;20212;-85
2021/03/24 02:01:36;;;;;;;20.65;11.95;;;1.00;99.90;;;;;;5097701;28;20190;-85
2021/03/24 02:04:03;;;;;;;20.48;10.52;;;0.90;99.90;;;;;;5097230;28;20292;-86
2021/03/24 02:06:36;;;;;;;19.20;11.40;;;0.90;99.90;;;;;;5091012;28;20664;-84
2021/03/24 02:09:12;;;;;;;15.43;10.63;;;1.60;99.90;;;;;;5092769;28;20283;-85
2021/03/24 02:11:47;;;;;;;16.20;10.32;;;0.90;99.90;;;;;;5094146;28;20292;-85
2021/03/24 02:14:18;;;;;;;15.88;10.25;;;0.90;99.90;;;;;;5093402;28;20235;-85
2021/03/24 02:16:49;;;;;;;24.20;12.50;;;0.90;99.90;;;;;;5094377;28;20287;-84
2021/03/24 02:19:35;;;;;;;15.13;10.30;;;0.80;99.90;;;;;;5093600;28;20196;-84
2021/03/24 02:22:03;;;;;;;23.20;11.13;;;1.80;99.90;;;;;;5093164;28;20247;-84
2021/03/24 02:24:48;;;;;;;18.38;10.40;;;0.80;99.90;;;;;;5091546;28;20283;-85
2021/03/24 02:27:19;;;;;;;14.82;9.25;;;0.70;99.90;;;;;;5092878;28;20662;-84
2021/03/24 02:29:50;;;;;;;21.30;10.35;;;0.70;99.90;;;;;;5093026;28;20287;-83
2021/03/24 02:32:19;;;;;;;20.50;10.63;;;0.60;99.90;;;;;;5096906;28;20201;-84
2021/03/24 02:34:48;;;;;;;16.25;10.60;;;0.50;99.90;;;;;;5096408;28;20235;-83
2021/03/24 02:37:17;;;;;;;19.90;11.25;;;0.50;99.90;;;;;;5097287;28;20227;-84
2021/03/24 02:39:47;;;;;;;14.77;8.27;;;0.50;99.90;;;;;;5096401;28;20290;-87
2021/03/24 02:42:15;;;;;;;22.00;12.07;;;0.40;99.90;;;;;;5097350;28;20220;-84
2021/03/24 02:44:44;;;;;;;15.15;10.10;;;0.50;99.90;;;;;;5094610;28;20244;-84
2021/03/24 02:47:11;;;;;;;18.10;9.93;;;0.40;99.90;;;;;;5096615;28;20239;-84
2021/03/24 02:49:40;;;;;;;21.45;10.52;;;0.30;99.90;;;;;;5096639;28;20251;-84
2021/03/24 02:52:07;;;;;;;19.33;11.77;;;0.30;99.90;;;;;;5096153;28;20599;-84
2021/03/24 02:54:34;;;;;;;18.13;10.73;;;0.40;99.90;;;;;;5075616;28;20253;-83
2021/03/24 02:57:04;;;;;;;15.93;9.35;;;0.40;99.90;;;;;;5076559;28;20244;-84
2021/03/24 02:59:32;;;;;;;20.00;10.68;;;0.40;99.90;;;;;;5076383;28;20572;-83
2021/03/24 03:02:05;;;;;;;20.70;11.88;;;0.40;99.90;;;;;;5076621;28;20206;-84
2021/03/24 03:04:35;;;;;;;16.27;10.63;;;0.40;99.90;;;;;;5076173;28;20237;-84
2021/03/24 03:07:08;;;;;;;15.70;10.35;;;0.40;99.90;;;;;;5075326;28;20661;-83
2021/03/24 03:09:45;;;;;;;26.25;12.25;;;0.40;99.90;;;;;;5075129;28;20625;-83
2021/03/24 03:12:20;;;;;;;16.55;7.85;;;0.40;99.90;;;;;;5076116;28;20676;-83
2021/03/24 03:14:54;;;;;;;18.13;10.27;;;0.50;99.90;;;;;;5075785;28;20240;-84
2021/03/24 03:17:28;;;;;;;14.65;8.98;;;0.40;99.90;;;;;;5074859;28;20267;-83
2021/03/24 03:20:00;;;;;;;20.92;12.32;;;0.40;99.90;;;;;;5076882;28;20295;-86
2021/03/24 03:22:31;;;;;;;28.02;12.95;;;0.30;99.90;;;;;;5076106;28;20604;-86
2021/03/24 03:25:03;;;;;;;21.35;11.90;;;0.30;99.90;;;;;;5081418;28;20625;-85
2021/03/24 03:27:31;;;;;;;22.80;10.93;;;0.30;99.90;;;;;;5096470;28;20224;-86
2021/03/24 03:30:00;;;;;;;21.50;11.70;;;0.30;99.90;;;;;;5095962;28;20243;-85
2021/03/24 03:32:30;;;;;;;17.88;11.85;;;0.40;99.90;;;;;;5095125;28;20293;-86
2021/03/24 03:35:04;;;;;;;22.63;13.27;;;0.40;99.90;;;;;;5096138;28;20197;-85
2021/03/24 03:37:31;;;;;;;20.92;11.10;;;0.30;99.90;;;;;;5096002;28;20286;-85
2021/03/24 03:39:58;;;;;;;18.17;10.27;;;0.70;99.90;;;;;;5058679;28;20307;-86
2021/03/24 03:42:27;;;;;;;27.00;10.65;;;0.60;99.90;;;;;;5095516;28;20319;-86
2021/03/24 03:44:56;;;;;;;23.48;10.60;;;0.40;99.90;;;;;;5095592;28;20207;-85
2021/03/24 03:47:24;;;;;;;22.48;12.35;;;0.40;99.90;;;;;;5095693;28;20232;-87
2021/03/24 03:49:51;;;;;;;21.75;11.15;;;0.30;99.90;;;;;;5095813;28;20293;-86
2021/03/24 03:52:29;;;;;;;22.33;14.05;;;0.40;99.90;;;;;;5096024;28;20619;-86
2021/03/24 03:55:07;;;;;;;25.13;11.38;;;2.00;99.90;;;;;;5094614;28;20634;-86
2021/03/24 03:57:40;;;;;;;17.05;9.75;;;0.30;99.90;;;;;;5095923;28;20236;-84
2021/03/24 04:00:17;;;;;;;18.73;10.52;;;0.40;99.90;;;;;;5094534;28;20289;-84
2021/03/24 04:02:51;;;;;;;20.15;11.88;;;0.30;99.90;;;;;;5095597;28;20311;-84
2021/03/24 04:05:22;;;;;;;20.58;12.77;;;0.30;99.90;;;;;;5007061;28;20201;-86
2021/03/24 04:07:55;;;;;;;22.35;13.38;;;0.30;99.90;;;;;;5074216;28;20284;-85
2021/03/24 04:10:24;;;;;;;24.83;13.13;;;0.30;99.90;;;;;;5075422;28;20306;-84
2021/03/24 04:12:53;;;;;;;17.65;12.52;;;0.30;99.90;;;;;;5091770;28;20304;-85
2021/03/24 04:15:20;;;;;;;26.00;13.13;;;0.30;99.90;;;;;;5095865;28;20280;-84
2021/03/24 04:17:50;;;;;;;19.35;10.77;;;0.20;99.90;;;;;;5094258;28;20228;-85
2021/03/24 04:20:19;;;;;;;18.08;13.02;;;0.20;99.90;;;;;;5095224;28;20338;-85
2021/03/24 04:22:48;;;;;;;22.63;12.75;;;0.30;99.90;;;;;;5094500;28;20320;-84
2021/03/24 04:25:20;;;;;;;18.98;10.43;;;0.20;99.90;;;;;;5095355;28;20213;-85
2021/03/24 04:27:50;;;;;;;19.08;10.45;;;0.20;99.90;;;;;;5094271;28;20761;-85
2021/03/24 04:30:22;;;;;;;23.80;11.82;;;0.20;99.90;;;;;;5094938;28;20204;-85
2021/03/24 04:32:51;;;;;;;15.77;10.02;;;0.20;99.90;;;;;;5094880;28;20300;-85
2021/03/24 04:35:20;;;;;;;27.05;13.88;;;0.20;99.90;;;;;;5094942;28;20292;-85
2021/03/24 04:37:51;;;;;;;22.05;11.70;;;0.20;99.90;;;;;;5092796;28;20205;-83
2021/03/24 04:40:25;;;;;;;25.52;12.82;;;0.20;99.90;;;;;;5076008;28;20247;-85
2021/03/24 04:42:54;;;;;;;35.72;12.40;;;0.30;99.90;;;;;;5094929;28;20312;-85
2021/03/24 04:45:34;;;;;;;19.13;11.02;;;0.30;99.90;;;;;;5094857;28;20228;-85
2021/03/24 04:48:07;;;;;;;23.95;12.07;;;0.30;99.90;;;;;;5094548;28;20863;-84
2021/03/24 04:50:37;;;;;;;23.30;12.80;;;0.20;99.90;;;;;;5078354;28;20567;-85
2021/03/24 04:53:05;;;;;;;18.50;12.02;;;0.20;99.90;;;;;;5072046;28;20635;-85
2021/03/24 04:55:33;;;;;;;20.13;11.55;;;0.10;99.90;;;;;;5074437;28;20609;-85
2021/03/24 04:58:02;;;;;;;14.95;9.85;;;0.10;99.90;;;;;;5074112;28;20297;-84
2021/03/24 05:00:35;;;;;;;29.48;12.30;;;0.10;99.90;;;;;;5074407;28;20233;-86
2021/03/24 05:03:08;;;;;;;27.90;12.13;;;0.00;99.90;;;;;;5075684;28;20279;-85
2021/03/24 05:05:38;;;;;;;23.55;12.40;;;0.10;99.90;;;;;;5091577;28;20292;-84
2021/03/24 05:08:18;;;;;;;20.70;11.52;;;0.10;99.90;;;;;;5093486;28;20209;-85
2021/03/24 05:10:44;;;;;;;21.77;11.93;;;0.00;99.90;;;;;;5093778;28;20232;-85
2021/03/24 05:13:20;;;;;;;20.13;12.23;;;0.00;99.90;;;;;;5094919;28;20724;-85
2021/03/24 05:15:55;;;;;;;32.92;15.10;;;-0.10;99.90;;;;;;5094413;28;20280;-86
2021/03/24 05:18:23;;;;;;;24.60;12.75;;;0.00;99.90;;;;;;5094319;28;20291;-86
2021/03/24 05:20:56;;;;;;;19.35;12.18;;;0.00;99.90;;;;;;5094446;28;20295;-83
2021/03/24 05:23:24;;;;;;;20.63;10.40;;;0.10;99.90;;;;;;5092982;28;20392;-86
2021/03/24 05:25:57;;;;;;;21.90;12.95;;;0.10;99.90;;;;;;5094142;28;20239;-86
2021/03/24 05:28:28;;;;;;;22.65;11.25;;;0.10;99.90;;;;;;5094131;28;20208;-85
2021/03/24 05:31:01;;;;;;;25.30;14.05;;;0.10;99.90;;;;;;5093740;28;20263;-86
2021/03/24 05:33:36;;;;;;;20.05;12.82;;;0.10;99.90;;;;;;5094418;28;20318;-86
2021/03/24 05:36:09;;;;;;;23.77;11.88;;;0.10;99.90;;;;;;5094118;28;20236;-86
2021/03/24 05:38:38;;;;;;;22.10;13.25;;;0.10;99.90;;;;;;5097076;28;20255;-85
2021/03/24 05:41:15;;;;;;;28.20;13.80;;;0.10;99.90;;;;;;5093962;28;20254;-85
2021/03/24 05:44:09;;;;;;;23.20;14.50;;;0.40;99.90;;;;;;5094159;28;20319;-84
2021/03/24 05:46:55;;;;;;;21.90;13.40;;;0.20;99.90;;;;;;5090984;28;20338;-85
2021/03/24 05:49:33;;;;;;;24.60;13.13;;;0.20;99.90;;;;;;5093759;28;20242;-85
2021/03/24 05:52:10;;;;;;;23.30;14.32;;;0.20;99.90;;;;;;5093878;28;20288;-85
2021/03/24 05:54:52;;;;;;;24.42;12.88;;;0.30;99.90;;;;;;5092142;28;20262;-84
2021/03/24 05:57:40;;;;;;;25.38;14.15;;;0.80;99.90;;;;;;5094106;28;20291;-83
2021/03/24 06:00:32;;;;;;;25.67;15.50;;;0.50;99.90;;;;;;5094380;28;20205;-84
2021/03/24 06:03:08;;;;;;;33.17;16.67;;;0.50;99.90;;;;;;5095915;28;20228;-85
2021/03/24 06:05:41;;;;;;;32.80;19.17;;;0.70;99.90;;;;;;5110232;28;20196;-85
2021/03/24 06:09:04;;;;;;;24.25;14.45;;;0.70;99.90;;;;;;5116386;28;20523;-85
2021/03/24 06:12:09;;;;;;;26.00;16.48;;;0.80;99.90;;;;;;5117745;28;20201;-85
2021/03/24 06:15:00;;;;;;;24.85;15.13;;;0.90;99.90;;;;;;5073061;28;20188;-86
2021/03/24 06:17:44;;;;;;;22.27;13.85;;;1.40;99.90;;;;;;5119097;28;20192;-86
2021/03/24 06:20:36;;;;;;;18.83;12.00;;;1.00;99.90;;;;;;5107590;28;20192;-86
2021/03/24 06:23:28;;;;;;;17.77;12.00;;;1.00;99.90;;;;;;5096879;28;20593;-86
2021/03/24 06:26:04;;;;;;;22.90;12.55;;;1.20;99.90;;;;;;5095053;28;20247;-85
2021/03/24 06:28:40;;;;;;;17.67;12.05;;;1.20;99.90;;;;;;5093648;28;20287;-84
2021/03/24 06:31:37;;;;;;;21.20;11.15;;;1.30;99.90;;;;;;5093455;28;20204;-84
2021/03/24 06:34:24;;;;;;;25.75;14.38;;;1.40;99.90;;;;;;5058215;28;20228;-84
2021/03/24 06:37:07;;;;;;;23.52;13.15;;;1.50;99.90;;;;;;5094335;28;20633;-88
2021/03/24 06:39:50;;;;;;;17.85;13.80;;;1.50;99.90;;;;;;5092947;28;20288;-85
2021/03/24 06:42:38;;;;;;;27.25;16.20;;;1.60;99.90;;;;;;5092837;28;20235;-84
2021/03/24 06:45:23;;;;;;;18.85;13.35;;;1.60;99.90;;;;;;5092982;28;20296;-85
2021/03/24 06:47:56;;;;;;;22.60;13.30;;;1.80;99.90;;;;;;5092849;28;20236;-85
2021/03/24 06:51:00;;;;;;;23.83;11.10;;;1.90;99.90;;;;;;5092863;28;20284;-86
2021/03/24 06:54:09;;;;;;;24.42;13.35;;;2.00;99.90;;;;;;5090566;28;20327;-85
2021/03/24 06:57:10;;;;;;;27.55;13.52;;;2.10;99.90;;;;;;5092604;28;20232;-86
2021/03/24 07:00:02;;;;;;;21.02;13.27;;;2.30;99.90;;;;;;5093009;28;20295;-85
2021/03/24 07:03:12;;;;;;;21.10;14.10;;;2.40;99.90;;;;;;5093158;28;20240;-85
2021/03/24 07:06:18;;;;;;;27.95;14.73;;;2.60;99.90;;;;;;5082663;28;20291;-85
2021/03/24 07:09:07;;;;;;;28.13;15.77;;;2.70;99.90;;;;;;5081002;28;20291;-85
2021/03/24 07:11:56;;;;;;;30.08;14.60;;;2.90;99.90;;;;;;5091948;28;20652;-85
2021/03/24 07:14:55;;;;;;;22.42;14.77;;;3.10;99.90;;;;;;5092468;28;20665;-85
2021/03/24 07:17:48;;;;;;;21.20;13.68;;;3.20;99.90;;;;;;5095439;28;20201;-84
2021/03/24 07:20:45;;;;;;;24.60;15.48;;;3.40;99.90;;;;;;5097234;28;20288;-86
2021/03/24 07:23:42;;;;;;;24.27;15.35;;;3.60;99.90;;;;;;5083044;28;20311;-89
2021/03/24 07:26:20;;;;;;;21.20;13.82;;;3.70;99.90;;;;;;5103527;28;20230;-89
2021/03/24 07:29:03;;;;;;;21.52;13.55;;;3.90;99.90;;;;;;5107118;28;20204;-88
2021/03/24 07:31:48;;;;;;;23.27;14.35;;;4.10;99.90;;;;;;5106710;28;20204;-87
2021/03/24 07:34:27;;;;;;;24.13;14.38;;;4.30;99.90;;;;;;5093532;28;20251;-89
2021/03/24 07:37:25;;;;;;;23.92;14.48;;;4.40;99.90;;;;;;5103112;28;20201;-87
2021/03/24 07:40:32;;;;;;;21.52;13.55;;;4.60;99.90;;;;;;5096541;28;20243;-91
2021/03/24 07:43:25;;;;;;;22.77;15.43;;;4.70;99.90;;;;;;5034314;28;20353;-87
2021/03/24 07:46:06;;;;;;;27.77;14.13;;;4.90;99.90;;;;;;5092484;28;20331;-88
2021/03/24 07:49:15;;;;;;;24.30;13.25;;;5.00;99.90;;;;;;5096110;28;20625;-87
2021/03/24 07:52:03;;;;;;;23.75;12.18;;;5.20;99.90;;;;;;5096455;28;20205;-89
2021/03/24 07:54:35;;;;;;;21.05;13.30;;;5.30;99.90;;;;;;5095005;28;20759;-91
2021/03/24 07:57:10;;;;;;;21.08;13.98;;;5.50;99.90;;;;;;5096110;28;20197;-90
2021/03/24 07:59:45;;;;;;;24.20;14.68;;;5.50;99.90;;;;;;5095936;28;20232;-88
2021/03/24 08:02:30;;;;;;;21.38;11.10;;;5.60;99.90;;;;;;5095673;28;20239;-86
2021/03/24 08:05:28;;;;;;;17.25;12.70;;;5.70;99.90;;;;;;5095817;28;20291;-84
2021/03/24 08:08:07;;;;;;;23.20;13.98;;;5.70;99.90;;;;;;5094278;28;20257;-81
2021/03/24 08:10:38;;;;;;;19.52;12.45;;;5.70;99.90;;;;;;5095512;28;20411;-81
2021/03/24 08:13:32;;;;;;;20.08;12.43;;;5.80;99.90;;;;;;5075685;28;20205;-88
2021/03/24 08:16:07;;;;;;;19.77;11.95;;;6.00;99.90;;;;;;5096620;28;20241;-86
2021/03/24 08:18:49;;;;;;;22.90;13.90;;;6.10;99.90;;;;;;5095717;28;20197;-88
2021/03/24 08:21:19;;;;;;;22.80;13.90;;;6.20;99.90;;;;;;5095245;28;20291;-84
2021/03/24 08:24:18;;;;;;;22.58;12.73;;;6.40;99.90;;;;;;5093880;28;20264;-76
2021/03/24 08:26:49;;;;;;;22.35;14.90;;;6.50;99.90;;;;;;5094760;28;20699;-82
2021/03/24 08:29:25;;;;;;;17.92;12.88;;;6.60;99.90;;;;;;5093585;28;20292;-82
2021/03/24 08:33:00;;;;;;;21.92;13.52;;;6.70;99.90;;;;;;5095116;28;20295;-83
2021/03/24 08:35:43;;;;;;;19.55;14.30;;;6.70;99.90;;;;;;5094485;28;20205;-80
2021/03/24 08:38:54;;;;;;;20.02;13.20;;;6.80;99.90;;;;;;5093721;28;20247;-82
2021/03/24 08:41:50;;;;;;;15.98;12.20;;;6.90;99.90;;;;;;5080786;28;20694;-80
2021/03/24 08:44:23;;;;;;;22.42;13.30;;;6.90;99.90;;;;;;5094337;28;20324;-81
2021/03/24 08:46:55;;;;;;;23.42;13.43;;;7.00;99.90;;;;;;5093367;28;20308;-82
2021/03/24 08:49:26;;;;;;;17.77;12.00;;;7.10;99.90;;;;;;5094487;28;20932;-83
2021/03/24 08:52:01;;;;;;;17.33;11.38;;;7.30;99.90;;;;;;5094439;28;20241;-80
2021/03/24 08:54:52;;;;;;;21.17;15.20;;;7.40;99.90;;;;;;5092885;28;20319;-83
2021/03/24 08:57:40;;;;;;;17.45;12.23;;;7.50;99.90;;;;;;5073858;28;20244;-84
2021/03/24 09:00:22;;;;;;;21.02;12.75;;;7.50;99.90;;;;;;5068667;28;20201;-82
2021/03/24 09:02:59;;;;;;;23.35;12.55;;;7.70;99.90;;;;;;5073770;28;20264;-82
2021/03/24 09:05:29;;;;;;;16.30;11.50;;;7.80;99.90;;;;;;5087889;28;20236;-80
2021/03/24 09:08:29;;;;;;;17.50;11.93;;;8.00;99.90;;;;;;5092784;28;20871;-80
2021/03/24 09:11:18;;;;;;;22.67;13.40;;;7.90;99.90;;;;;;5078801;28;20520;-84
2021/03/24 09:13:51;;;;;;;21.50;12.83;;;8.00;99.90;;;;;;5093568;28;20474;-86
2021/03/24 09:16:42;;;;;;;17.35;12.57;;;8.10;99.90;;;;;;5094047;28;20447;-82
2021/03/24 09:19:22;;;;;;;17.52;11.90;;;8.20;99.90;;;;;;5094459;28;20281;-80
2021/03/24 09:22:00;;;;;;;17.13;12.30;;;8.40;99.90;;;;;;5093658;28;20200;-83
2021/03/24 09:25:00;;;;;;;20.83;13.07;;;8.40;99.90;;;;;;5092489;28;20581;-82
2021/03/24 09:28:08;;;;;;;17.77;13.53;;;8.30;99.90;;;;;;5093637;28;20482;-82
2021/03/24 09:30:50;;;;;;;15.05;10.70;;;8.50;99.90;;;;;;5092237;28;20549;-80
2021/03/24 09:33:48;;;;;;;18.10;10.93;;;8.70;99.90;;;;;;5093565;28;20232;-81
2021/03/24 09:36:35;;;;;;;16.60;11.77;;;8.90;98.80;;;;;;5093530;28;20533;-82
2021/03/24 09:39:16;;;;;;;19.63;12.13;;;9.10;99.40;;;;;;5096977;28;20961;-82
2021/03/24 09:41:47;;;;;;;17.40;10.90;;;9.00;98.00;;;;;;5094046;28;20521;-89
2021/03/24 09:44:20;;;;;;;14.20;9.93;;;9.00;97.40;;;;;;5093517;28;20574;-81
2021/03/24 09:46:49;;;;;;;16.23;10.57;;;9.20;97.90;;;;;;5092898;28;20548;-83
2021/03/24 09:50:05;;;;;;;17.30;11.50;;;9.30;98.90;;;;;;5093555;28;20483;-84
2021/03/24 09:52:35;;;;;;;13.83;9.20;;;9.30;97.20;;;;;;5092802;28;20578;-83
2021/03/24 09:55:34;;;;;;;17.87;10.57;;;9.30;97.20;;;;;;5092292;28;20546;-79
2021/03/24 09:58:38;;;;;;;17.00;9.70;;;9.50;97.70;;;;;;5059282;28;20490;-87
2021/03/24 10:01:38;;;;;;;18.63;11.57;;;9.70;98.40;;;;;;5093563;28;20857;-82
2021/03/24 10:04:14;;;;;;;12.93;11.00;;;9.80;97.10;;;;;;5093114;28;20836;-82
2021/03/24 10:06:53;;;;;;;13.40;11.10;;;10.00;97.30;;;;;;5093252;28;20439;-83
2021/03/24 10:09:29;;;;;;;16.27;10.87;;;10.00;96.00;;;;;;5092159;28;20538;-80
2021/03/24 10:12:09;;;;;;;13.83;11.20;;;9.40;97.30;;;;;;5093063;28;20458;-82
2021/03/24 10:14:39;;;;;;;16.90;11.20;;;10.10;96.70;;;;;;5093453;28;20490;-80
2021/03/24 10:17:12;;;;;;;17.90;11.27;;;10.30;96.60;;;;;;5092635;28;20459;-89
2021/03/24 10:19:46;;;;;;;15.13;11.00;;;10.10;96.00;;;;;;5097480;28;20493;-79
2021/03/24 10:22:18;;;;;;;14.93;11.23;;;10.10;96.90;;;;;;5103008;28;20475;-81
2021/03/24 10:24:48;;;;;;;14.63;10.93;;;10.20;96.50;;;;;;5096750;28;21093;-80
2021/03/24 10:27:20;;;;;;;14.23;10.70;;;10.20;95.60;;;;;;5096068;28;20474;-81
2021/03/24 10:29:52;;;;;;;18.40;11.50;;;10.20;95.90;;;;;;5102352;28;20431;-81
2021/03/24 10:32:24;;;;;;;18.47;10.50;;;10.20;95.50;;;;;;5112672;28;20439;-82
2021/03/24 10:34:57;;;;;;;16.93;11.03;;;10.50;95.70;;;;;;5088472;28;20551;-82
2021/03/24 10:37:30;;;;;;;19.80;13.00;;;10.30;95.10;;;;;;5073525;28;20850;-83
2021/03/24 10:40:03;;;;;;;13.50;9.30;;;10.30;95.30;;;;;;5071794;28;20525;-82
2021/03/24 10:42:35;;;;;;;22.00;11.40;;;10.50;95.10;;;;;;5073449;28;20452;-84
2021/03/24 10:45:16;;;;;;;17.63;11.60;;;10.60;95.10;;;;;;5073297;28;20535;-85
2021/03/24 10:47:46;;;;;;;20.07;11.60;;;10.80;95.50;;;;;;5088157;28;20551;-83
2021/03/24 10:50:21;;;;;;;17.63;10.57;;;10.70;95.20;;;;;;5093029;28;21025;-84
2021/03/24 10:53:04;;;;;;;17.67;11.50;;;10.80;95.20;;;;;;5096812;28;20504;-84
2021/03/24 10:55:32;;;;;;;16.83;10.00;;;11.00;96.20;;;;;;5097144;28;20504;-85
2021/03/24 10:58:12;;;;;;;17.57;10.07;;;11.10;94.40;;;;;;5097346;28;20455;-84
2021/03/24 11:00:44;;;;;;;13.87;9.67;;;11.00;94.30;;;;;;5097036;28;20446;-83
2021/03/24 11:03:17;;;;;;;18.10;11.60;;;11.20;94.80;;;;;;5096559;28;21126;-84
2021/03/24 11:05:48;;;;;;;14.17;11.60;;;10.90;94.00;;;;;;5096732;28;20482;-87
2021/03/24 11:08:27;;;;;;;10.93;9.83;;;11.00;93.30;;;;;;5095363;28;20538;-74
2021/03/24 11:10:59;;;;;;;14.57;10.40;;;11.00;94.20;;;;;;5096494;28;20446;-81
2021/03/24 11:13:31;;;;;;;14.40;9.80;;;11.20;93.90;;;;;;5096505;28;20541;-80
2021/03/24 11:16:16;;;;;;;13.90;8.90;;;11.30;93.00;;;;;;5095456;28;20469;-81
2021/03/24 11:18:45;;;;;;;12.00;9.07;;;11.40;93.50;;;;;;5096121;28;20450;-78
2021/03/24 11:21:34;;;;;;;11.63;7.60;;;11.60;93.00;;;;;;5096192;28;20482;-82
2021/03/24 11:24:21;;;;;;;11.03;7.27;;;11.60;92.00;;;;;;5095374;28;20591;-81
2021/03/24 11:26:55;;;;;;;12.63;7.97;;;11.60;92.00;;;;;;5096239;28;20453;-82
2021/03/24 11:29:25;;;;;;;16.60;8.70;;;11.80;92.90;;;;;;5095490;28;20554;-82
2021/03/24 11:32:01;;;;;;;14.07;8.93;;;12.00;92.10;;;;;;5097337;28;20443;-85
2021/03/24 11:34:37;;;;;;;10.10;8.50;;;12.10;91.70;;;;;;5069583;28;20463;-85
2021/03/24 11:37:11;;;;;;;12.80;8.37;;;12.20;91.30;;;;;;5097849;28;20456;-83
2021/03/24 11:39:46;;;;;;;14.07;9.70;;;12.10;91.10;;;;;;5098467;28;20438;-83
2021/03/24 11:42:15;;;;;;;12.70;9.20;;;11.90;90.60;;;;;;5085768;28;20911;-83
2021/03/24 11:44:44;;;;;;;12.97;9.53;;;11.90;91.30;;;;;;5072852;28;20498;-83
2021/03/24 11:47:41;;;;;;;16.57;9.80;;;11.90;91.50;;;;;;5086489;28;20490;-85
2021/03/24 11:50:11;;;;;;;11.87;8.90;;;12.00;91.30;;;;;;5095758;28;20488;-82
2021/03/24 11:52:53;;;;;;;10.03;8.43;;;12.00;90.80;;;;;;5095568;28;20530;-81
2021/03/24 11:55:51;;;;;;;12.63;8.23;;;12.00;90.50;;;;;;5087629;28;20555;-81
2021/03/24 11:58:31;;;;;;;16.00;11.33;;;12.20;91.20;;;;;;5075319;28;20448;-84
2021/03/24 12:01:06;;;;;;;12.97;9.93;;;12.30;91.00;;;;;;5075391;28;20538;-87
2021/03/24 12:03:54;;;;;;;14.37;9.00;;;12.40;90.00;;;;;;5075193;28;21065;-88
2021/03/24 12:06:29;;;;;;;12.37;8.10;;;12.50;91.30;;;;;;5093029;28;20462;-76
2021/03/24 12:09:01;;;;;;;11.63;7.50;;;12.40;90.40;;;;;;5094585;28;20495;-83
2021/03/24 12:11:29;;;;;;;13.27;9.10;;;12.60;90.70;;;;;;5095611;28;20454;-83
2021/03/24 12:14:05;;;;;;;14.20;8.83;;;12.50;90.10;;;;;;5095577;28;20458;-84
2021/03/24 12:16:41;;;;;;;16.93;9.57;;;12.60;90.00;;;;;;5096699;28;20546;-86
2021/03/24 12:19:27;;;;;;;9.60;7.10;;;12.80;90.20;;;;;;5094460;28;21098;-87
2021/03/24 12:21:56;;;;;;;13.77;7.47;;;12.60;89.20;;;;;;5096819;28;20542;-90
2021/03/24 12:24:32;;;;;;;10.57;7.87;;;12.70;88.80;;;;;;5058612;28;20522;-81
2021/03/24 12:27:16;;;;;;;9.80;6.80;;;12.60;88.00;;;;;;5095201;28;20533;-89
2021/03/24 12:29:46;;;;;;;10.00;7.17;;;12.60;88.80;;;;;;5095097;28;20534;-82
2021/03/24 12:32:23;;;;;;;9.50;7.07;;;12.50;88.20;;;;;;5095255;28;20533;-87
2021/03/24 12:34:52;;;;;;;16.43;9.60;;;12.70;90.20;;;;;;5094881;28;20543;-83
2021/03/24 12:37:27;;;;;;;16.63;9.40;;;12.90;90.40;;;;;;5094937;28;20486;-83
2021/03/24 12:40:03;;;;;;;13.77;8.50;;;12.80;89.90;;;;;;5093580;28;20485;-81
2021/03/24 12:42:32;;;;;;;12.90;9.33;;;12.90;89.80;;;;;;5094699;28;20846;-85
2021/03/24 12:44:59;;;;;;;14.53;9.47;;;12.60;90.40;;;;;;5094607;28;21025;-79
2021/03/24 12:47:31;;;;;;;13.40;10.53;;;12.80;90.00;;;;;;5095264;28;20862;-87
2021/03/24 12:50:27;;;;;;;17.00;9.90;;;12.90;89.70;;;;;;5094295;28;20447;-86
2021/03/24 12:53:01;;;;;;;10.93;9.60;;;12.90;89.50;;;;;;5093013;28;20544;-85
2021/03/24 12:55:27;;;;;;;12.83;8.30;;;13.10;90.40;;;;;;5095440;28;20466;-86
2021/03/24 12:58:06;;;;;;;17.53;9.50;;;13.30;89.50;;;;;;5094851;28;20541;-87
2021/03/24 13:00:48;;;;;;;10.97;8.43;;;13.40;86.30;;;;;;5095001;28;20508;-81
2021/03/24 13:03:52;;;;;;;13.03;8.53;;;13.40;86.90;;;;;;5095274;28;20483;-87
2021/03/24 13:06:28;;;;;;;17.93;9.63;;;13.40;86.20;;;;;;5076756;28;20529;-83
2021/03/24 13:09:02;;;;;;;13.47;9.07;;;13.60;85.10;;;;;;5073283;28;20452;-91
2021/03/24 13:11:44;;;;;;;10.40;7.70;;;13.30;84.30;;;;;;5039448;28;20881;-87
2021/03/24 13:14:39;;;;;;;10.77;8.47;;;13.30;86.80;;;;;;5073291;28;20528;-81
2021/03/24 13:17:14;;;;;;;10.00;7.83;;;13.60;86.10;;;;;;5080823;28;20945;-85
2021/03/24 13:19:47;;;;;;;16.03;8.93;;;13.70;84.50;;;;;;5097200;28;20518;-92
2021/03/24 13:22:20;;;;;;;11.93;7.17;;;13.80;84.30;;;;;;5093273;28;20528;-87
2021/03/24 13:25:01;;;;;;;10.77;8.60;;;13.90;83.60;;;;;;5073364;28;20520;-83